Time;durP1;ratioP1;P1;durP2;ratioP2;P2;SDS_P1;SDS_P2;PMS_P1;PMS_P2;Temp;Humidity;BMP_temperature;BMP_pressure;BME280_temperature;BME280_humidity;BME280_pressure;Samples;Min_cycle;Max_cycle;Signal;HPM_P1;HPM_P2
2022/03/30 00:01:29;;;;;;;15.98;5.93;;;;;;;7.45;64.36;99350.78;5054930;28;20047;-81
2022/03/30 00:03:55;;;;;;;16.55;5.85;;;;;;;7.38;65.26;99341.94;5037118;28;20037;-81
2022/03/30 00:06:20;;;;;;;21.48;6.47;;;;;;;7.42;64.96;99337.81;5055330;28;20223;-80
2022/03/30 00:08:45;;;;;;;15.30;5.68;;;;;;;7.36;65.00;99338.66;5056419;28;20056;-81
2022/03/30 00:11:11;;;;;;;18.07;6.27;;;;;;;7.43;64.63;99344.81;5057983;28;20020;-80
2022/03/30 00:13:37;;;;;;;19.00;7.03;;;;;;;7.36;64.91;99332.47;5058203;28;20339;-80
2022/03/30 00:16:03;;;;;;;;;;;;;;;7.39;64.88;99342.75;5058188;28;20037;-80
2022/03/30 00:18:29;;;;;;;15.95;5.57;;;;;;;7.29;64.96;99345.91;5058833;28;19919;-82
2022/03/30 00:20:54;;;;;;;16.13;5.82;;;;;;;7.34;65.18;99338.06;5070045;28;20033;-80
2022/03/30 00:23:20;;;;;;;14.17;5.40;;;;;;;7.25;65.44;99333.94;5059802;28;20489;-80
2022/03/30 00:25:45;;;;;;;18.98;5.93;;;;;;;7.30;65.59;99331.47;5037743;28;20082;-79
2022/03/30 00:28:11;;;;;;;17.40;5.73;;;;;;;7.23;65.93;99326.13;5058412;28;20030;-80
2022/03/30 00:30:36;;;;;;;17.23;6.00;;;;;;;7.17;65.62;99334.16;5054458;28;20279;-80
2022/03/30 00:33:02;;;;;;;22.95;6.15;;;;;;;7.19;65.90;99329.41;5057163;28;20262;-79
2022/03/30 00:35:27;;;;;;;14.13;5.30;;;;;;;7.10;66.24;99328.81;5058331;28;20103;-80
2022/03/30 00:37:52;;;;;;;17.03;6.07;;;;;;;7.11;65.90;99329.66;5058604;28;20256;-81
2022/03/30 00:40:18;;;;;;;14.30;5.93;;;;;;;7.09;66.03;99335.22;5058431;28;20047;-81
2022/03/30 00:42:44;;;;;;;17.03;6.67;;;;;;;7.11;65.94;99327.81;5041011;28;20772;-80
2022/03/30 00:45:21;;;;;;;15.93;6.07;;;;;;;7.09;66.35;99326.34;5058724;28;20056;-81
2022/03/30 00:47:47;;;;;;;19.23;6.63;;;;;;;6.99;67.07;99326.78;5059169;28;20061;-80
2022/03/30 00:50:16;;;;;;;;;;;;;;;6.94;66.80;99326.59;5059504;28;20460;-80
2022/03/30 00:52:42;;;;;;;17.27;5.90;;;;;;;6.98;66.77;99330.50;5060224;28;20003;-80
2022/03/30 00:55:09;;;;;;;15.45;6.05;;;;;;;6.91;66.88;99318.97;5060144;28;20033;-81
2022/03/30 00:57:35;;;;;;;17.00;6.63;;;;;;;6.97;67.15;99336.91;5059856;28;20032;-81
2022/03/30 01:00:06;;;;;;;21.48;7.07;;;;;;;6.88;67.74;99330.09;5060539;28;20032;-80
2022/03/30 01:02:32;;;;;;;17.25;5.93;;;;;;;6.87;67.18;99323.09;5065071;28;20106;-81
2022/03/30 01:04:57;;;;;;;23.70;7.23;;;;;;;6.98;67.05;99333.19;5059248;28;20057;-80
2022/03/30 01:07:25;;;;;;;17.50;7.40;;;;;;;6.74;68.05;99328.47;5058440;28;20037;-80
2022/03/30 01:09:50;;;;;;;20.15;5.97;;;;;;;6.65;68.29;99327.00;5058159;28;20429;-79
2022/03/30 01:12:16;;;;;;;19.88;6.55;;;;;;;6.56;68.58;99321.06;5058105;28;20040;-81
2022/03/30 01:14:42;;;;;;;18.13;5.82;;;;;;;6.58;68.49;99322.50;5058180;28;20087;-80
2022/03/30 01:17:07;;;;;;;15.05;5.68;;;;;;;6.66;68.30;99313.41;5058844;28;20029;-80
2022/03/30 01:19:34;;;;;;;17.27;6.07;;;;;;;6.71;68.10;99312.81;5058199;28;20128;-80
2022/03/30 01:21:59;;;;;;;21.52;7.35;;;;;;;6.47;69.36;99306.22;5057786;28;20048;-81
2022/03/30 01:24:26;;;;;;;18.60;6.47;;;;;;;6.41;68.77;99297.19;5058038;28;20028;-80
2022/03/30 01:26:52;;;;;;;16.05;5.95;;;;;;;6.38;69.20;99296.75;5058683;28;20278;-80
2022/03/30 01:34:45;;;;;;;14.15;6.82;;;;;;;6.26;69.59;99296.56;5058986;28;20040;-81
2022/03/30 01:37:12;;;;;;;16.00;6.47;;;;;;;6.24;70.22;99296.75;5061211;28;20037;-80
2022/03/30 01:39:38;;;;;;;16.65;5.97;;;;;;;6.19;70.36;99291.19;5060723;28;20040;-80
2022/03/30 01:42:04;;;;;;;;;;;;;;;6.22;70.56;99289.97;5040383;28;20037;-80
2022/03/30 01:44:30;;;;;;;19.63;6.22;;;;;;;6.26;69.97;99288.53;5057163;28;20350;-80
2022/03/30 01:46:55;;;;;;;17.38;5.55;;;;;;;6.14;71.04;99287.47;5056867;28;20029;-81
2022/03/30 01:49:24;;;;;;;16.53;5.77;;;;;;;6.20;70.43;99282.13;5056678;28;20029;-80
2022/03/30 01:51:51;;;;;;;17.17;6.38;;;;;;;6.25;70.18;99278.84;5056881;28;20431;-81
2022/03/30 01:54:22;;;;;;;22.92;7.00;;;;;;;6.09;71.01;99279.25;5056999;28;20033;-80
2022/03/30 01:56:48;;;;;;;18.60;6.35;;;;;;;6.04;70.77;99279.03;5056815;28;20029;-81
2022/03/30 01:59:14;;;;;;;20.52;8.18;;;;;;;6.04;71.25;99268.34;5056709;28;20068;-79
2022/03/30 02:01:40;;;;;;;24.80;7.70;;;;;;;6.01;71.51;99276.75;5056713;28;20029;-80
2022/03/30 02:04:06;;;;;;;17.58;6.20;;;;;;;5.92;71.64;99268.91;5056355;28;20045;-80
2022/03/30 02:06:36;;;;;;;18.38;6.50;;;;;;;6.06;70.96;99274.31;5056784;28;20126;-80
2022/03/30 02:09:03;;;;;;;14.38;6.20;;;;;;;6.10;71.43;99264.81;5056501;28;20086;-80
2022/03/30 02:11:28;;;;;;;23.30;6.10;;;;;;;6.02;71.36;99259.69;5056684;28;20028;-81
2022/03/30 02:13:55;;;;;;;13.52;5.90;;;;;;;6.06;71.58;99258.25;5056394;28;20037;-80
2022/03/30 02:16:21;;;;;;;18.25;7.22;;;;;;;6.01;71.47;99260.72;5056879;28;20025;-80
2022/03/30 02:18:46;;;;;;;17.73;6.78;;;;;;;5.88;71.88;99251.66;5055869;28;20025;-80
2022/03/30 02:21:12;;;;;;;17.63;7.10;;;;;;;6.15;70.94;99251.66;5056618;28;20043;-81
2022/03/30 02:23:39;;;;;;;17.55;5.63;;;;;;;5.93;71.79;99254.53;5056814;28;20529;-81
2022/03/30 02:26:04;;;;;;;14.75;5.55;;;;;;;5.85;71.70;99249.34;5056534;28;20029;-81
2022/03/30 02:28:30;;;;;;;19.25;7.07;;;;;;;5.86;72.08;99250.19;5056709;28;20048;-80
2022/03/30 02:30:55;;;;;;;13.10;6.37;;;;;;;5.91;72.01;99247.75;5056126;28;20029;-82
2022/03/30 02:33:21;;;;;;;11.73;5.22;;;;;;;5.81;72.25;99241.94;5056293;28;20037;-80
2022/03/30 02:35:46;;;;;;;16.80;6.20;;;;;;;5.81;72.32;99247.28;5040191;28;20072;-80
2022/03/30 02:38:11;;;;;;;19.47;6.77;;;;;;;5.88;72.44;99235.63;5057490;28;20021;-79
2022/03/30 02:40:37;;;;;;;18.50;6.13;;;;;;;5.82;72.27;99236.38;5056125;28;20045;-80
2022/03/30 02:43:02;;;;;;;17.30;6.55;;;;;;;5.65;72.64;99232.44;5055452;28;20029;-80
2022/03/30 02:45:27;;;;;;;19.17;6.70;;;;;;;5.59;73.11;99234.06;5036873;28;20179;-80
2022/03/30 02:50:37;;;;;;;18.60;6.35;;;;;;;5.51;73.90;99217.41;5055539;28;20082;-80
2022/03/30 02:53:02;;;;;;;23.17;8.03;;;;;;;5.47;73.50;99217.00;5055691;28;20021;-80
2022/03/30 02:55:28;;;;;;;19.20;6.43;;;;;;;5.55;73.96;99213.31;5060174;28;20213;-80
2022/03/30 02:57:53;;;;;;;25.70;7.72;;;;;;;5.42;74.06;99199.91;5066896;28;20256;-80
2022/03/30 03:00:19;;;;;;;20.92;5.90;;;;;;;5.35;74.04;99204.44;5066317;28;20437;-80
2022/03/30 03:02:44;;;;;;;22.80;7.53;;;;;;;5.37;73.85;99203.22;5061205;28;20467;-81
2022/03/30 03:05:09;;;;;;;21.47;7.40;;;;;;;5.32;74.82;99212.84;5057145;28;20080;-80
2022/03/30 03:07:35;;;;;;;21.97;7.07;;;;;;;5.32;74.60;99210.16;5057487;28;20266;-82
2022/03/30 03:10:01;;;;;;;15.20;5.87;;;;;;;5.34;74.32;99208.13;5057122;28;20411;-81
2022/03/30 03:12:26;;;;;;;;;;;;;;;5.26;74.33;99210.97;5057765;28;20028;-81
2022/03/30 03:14:51;;;;;;;17.00;6.13;;;;;;;5.14;74.86;99214.22;5057015;28;20006;-81
2022/03/30 03:17:17;;;;;;;13.07;5.97;;;;;;;5.13;75.68;99203.72;5056516;28;20670;-81
2022/03/30 03:19:42;;;;;;;20.53;6.23;;;;;;;5.18;75.29;99199.44;5057693;28;20099;-81
2022/03/30 03:22:08;;;;;;;15.97;5.60;;;;;;;5.10;75.12;99198.78;5060939;28;20266;-80
2022/03/30 03:24:33;;;;;;;15.93;5.90;;;;;;;5.04;75.75;99200.38;5062930;28;20460;-80
2022/03/30 03:26:59;;;;;;;19.63;6.57;;;;;;;5.03;75.35;99206.75;5058384;28;20059;-80
2022/03/30 03:29:25;;;;;;;21.50;5.55;;;;;;;5.03;75.70;99205.94;5057757;28;20333;-79
2022/03/30 03:31:50;;;;;;;16.02;5.97;;;;;;;4.99;75.84;99204.69;5057569;28;20460;-81
2022/03/30 03:34:16;;;;;;;15.47;5.80;;;;;;;4.84;76.20;99196.81;5056621;28;20082;-80
2022/03/30 03:36:41;;;;;;;19.73;7.03;;;;;;;4.85;76.00;99198.47;5057470;28;20033;-80
2022/03/30 03:39:06;;;;;;;19.85;7.00;;;;;;;4.91;76.02;99202.19;5056482;28;20029;-79
2022/03/30 03:41:32;;;;;;;15.80;6.90;;;;;;;4.91;75.72;99203.00;5056230;28;20032;-78
2022/03/30 03:43:57;;;;;;;21.67;6.83;;;;;;;4.80;76.50;99203.59;5054049;28;20115;-78
2022/03/30 03:46:22;;;;;;;17.20;6.97;;;;;;;4.79;76.61;99201.94;5055546;28;20029;-81
2022/03/30 03:48:48;;;;;;;23.13;7.80;;;;;;;4.82;76.43;99201.53;5055445;28;20345;-79
2022/03/30 03:51:13;;;;;;;18.17;6.27;;;;;;;4.74;76.71;99207.03;5055614;28;20354;-80
2022/03/30 03:53:38;;;;;;;17.87;5.90;;;;;;;4.64;76.99;99195.91;5056182;28;20033;-81
2022/03/30 03:56:04;;;;;;;14.47;5.30;;;;;;;4.68;77.12;99189.94;5055479;28;20037;-80
2022/03/30 03:58:30;;;;;;;;;;;;;;;4.50;77.83;99186.97;5056328;28;20032;-77
2022/03/30 04:00:56;;;;;;;17.63;6.47;;;;;;;4.50;77.34;99185.13;5055585;28;20343;-79
2022/03/30 04:03:21;;;;;;;;;;;;;;;4.38;77.68;99185.88;5056202;28;20048;-78
2022/03/30 04:05:47;;;;;;;19.50;6.85;;;;;;;4.39;77.75;99187.53;5055543;28;19916;-79
2022/03/30 04:08:12;;;;;;;17.27;6.20;;;;;;;4.34;78.05;99190.78;5057362;28;20112;-79
2022/03/30 04:10:38;;;;;;;19.77;6.80;;;;;;;4.39;78.15;99187.53;5057676;28;20041;-80
2022/03/30 04:13:07;;;;;;;15.82;6.05;;;;;;;4.33;77.89;99186.47;5058619;28;20025;-79
2022/03/30 04:15:37;;;;;;;18.63;6.30;;;;;;;4.48;78.21;99183.69;5058718;28;20029;-80
2022/03/30 04:18:04;;;;;;;18.33;5.32;;;;;;;4.51;77.67;99175.28;5058895;28;20032;-80
2022/03/30 04:20:30;;;;;;;24.15;7.05;;;;;;;4.55;76.96;99176.53;5058203;28;20028;-79
2022/03/30 04:22:55;;;;;;;;;;;;;;;4.51;77.06;99165.44;5058711;28;20033;-79
2022/03/30 04:25:21;;;;;;;16.65;5.15;;;;;;;4.71;77.14;99164.72;5058245;28;19919;-79
2022/03/30 04:27:48;;;;;;;18.25;7.30;;;;;;;4.59;76.75;99166.31;5058946;28;20033;-79
2022/03/30 04:30:15;;;;;;;22.20;6.57;;;;;;;4.44;77.83;99169.94;5040131;28;20137;-80
2022/03/30 04:32:41;;;;;;;21.08;7.28;;;;;;;4.40;77.56;99166.00;5057925;28;20104;-80
2022/03/30 04:35:07;;;;;;;18.00;6.07;;;;;;;4.30;77.83;99157.50;5057868;28;20490;-79
2022/03/30 04:37:34;;;;;;;23.50;7.22;;;;;;;4.36;77.66;99156.75;5057961;28;20040;-80
2022/03/30 04:40:00;;;;;;;16.02;6.72;;;;;;;4.52;77.45;99155.59;5057380;28;20025;-79
2022/03/30 04:42:25;;;;;;;19.73;6.60;;;;;;;4.23;78.15;99161.16;5039913;28;20112;-80
2022/03/30 04:44:50;;;;;;;15.60;5.90;;;;;;;4.22;78.29;99149.69;5057271;28;20114;-80
2022/03/30 04:47:16;;;;;;;15.77;5.80;;;;;;;4.33;77.70;99143.78;5039910;28;20025;-80
2022/03/30 04:49:42;;;;;;;17.33;7.55;;;;;;;4.35;77.56;99148.94;5057613;28;20111;-79
2022/03/30 04:52:08;;;;;;;27.48;7.15;;;;;;;4.28;77.90;99148.91;5057237;28;20076;-79
2022/03/30 04:54:33;;;;;;;20.52;6.60;;;;;;;4.11;78.52;99153.72;5057328;28;20029;-83
2022/03/30 04:56:59;;;;;;;21.77;6.88;;;;;;;4.10;78.35;99156.56;5057903;28;20040;-81
2022/03/30 04:59:24;;;;;;;20.23;6.38;;;;;;;3.99;78.97;99155.25;5058177;28;20033;-82
2022/03/30 05:01:49;;;;;;;21.67;6.93;;;;;;;4.04;78.51;99157.34;5040259;28;20033;-83
2022/03/30 05:04:15;;;;;;;20.57;8.63;;;;;;;3.85;79.29;99153.50;5058246;28;20053;-83
2022/03/30 05:06:40;;;;;;;15.10;7.07;;;;;;;4.00;79.11;99150.75;5057919;28;20364;-83
2022/03/30 05:09:06;;;;;;;17.20;7.00;;;;;;;4.29;77.66;99147.06;5057643;28;20494;-82
2022/03/30 05:11:31;;;;;;;23.07;8.33;;;;;;;3.96;78.74;99149.47;5057681;28;20029;-83
2022/03/30 05:13:57;;;;;;;20.87;6.50;;;;;;;3.93;78.87;99155.22;5058238;28;20256;-82
2022/03/30 05:16:22;;;;;;;20.30;6.45;;;;;;;3.86;79.44;99154.31;5057070;28;20095;-83
2022/03/30 05:18:49;;;;;;;24.27;7.78;;;;;;;3.71;79.78;99154.41;5057167;28;20257;-83
2022/03/30 05:21:15;;;;;;;18.65;7.38;;;;;;;3.72;79.74;99154.22;5057749;28;20043;-82
2022/03/30 05:23:40;;;;;;;17.37;6.73;;;;;;;3.77;79.62;99161.63;5057736;28;20107;-83
2022/03/30 05:26:07;;;;;;;23.23;7.33;;;;;;;3.71;80.00;99152.56;5039863;28;20274;-84
2022/03/30 05:28:32;;;;;;;21.05;6.65;;;;;;;3.71;79.99;99155.25;5058227;28;20274;-82
2022/03/30 05:30:57;;;;;;;22.93;8.03;;;;;;;3.79;79.70;99155.09;5040186;28;20025;-83
2022/03/30 05:33:23;;;;;;;21.85;7.93;;;;;;;3.91;79.15;99152.75;5059023;28;20033;-86
2022/03/30 05:35:50;;;;;;;21.52;6.28;;;;;;;3.98;78.74;99152.78;5059839;28;20032;-84
2022/03/30 05:38:17;;;;;;;19.63;6.18;;;;;;;3.83;79.49;99161.69;5058718;28;20120;-80
2022/03/30 05:40:42;;;;;;;21.70;8.48;;;;;;;3.77;79.38;99148.28;5061213;28;20044;-81
2022/03/30 05:43:08;;;;;;;21.47;8.77;;;;;;;3.73;79.34;99155.88;5059027;28;20029;-81
2022/03/30 05:45:34;;;;;;;14.50;6.38;;;;;;;3.68;79.79;99160.94;5059198;28;20268;-81
2022/03/30 05:47:59;;;;;;;26.52;9.55;;;;;;;3.76;79.49;99162.66;5059501;28;20044;-81
2022/03/30 05:50:25;;;;;;;21.80;7.18;;;;;;;3.74;79.46;99156.69;5059088;28;20025;-80
2022/03/30 05:52:51;;;;;;;21.95;7.72;;;;;;;3.77;79.10;99161.63;5060730;28;20096;-81
2022/03/30 05:55:17;;;;;;;23.65;8.10;;;;;;;3.76;79.36;99155.47;5042208;28;20036;-80
2022/03/30 05:57:42;;;;;;;22.67;7.05;;;;;;;3.87;78.79;99159.47;5061260;28;20040;-82
2022/03/30 06:00:09;;;;;;;23.35;7.78;;;;;;;3.87;78.65;99155.97;5059729;28;20029;-81
2022/03/30 06:02:34;;;;;;;23.10;7.97;;;;;;;3.73;79.17;99161.19;5042068;28;20033;-81
2022/03/30 06:05:00;;;;;;;19.55;6.68;;;;;;;3.79;79.18;99162.25;5062982;28;20395;-81
2022/03/30 06:07:25;;;;;;;23.70;7.22;;;;;;;3.80;79.22;99166.56;5059429;28;20037;-80
2022/03/30 06:09:50;;;;;;;19.10;6.93;;;;;;;3.83;79.30;99166.19;5058349;28;20033;-80
2022/03/30 06:12:16;;;;;;;16.37;7.07;;;;;;;3.83;78.81;99169.69;5057789;28;20065;-80
2022/03/30 06:14:42;;;;;;;23.67;8.07;;;;;;;3.74;78.88;99165.53;5057308;28;20056;-80
2022/03/30 06:17:08;;;;;;;28.33;7.53;;;;;;;3.61;79.57;99162.72;5057596;28;20025;-80
2022/03/30 06:19:34;;;;;;;;;;;;;;;3.62;79.54;99152.88;5058471;28;20444;-80
2022/03/30 06:22:08;;;;;;;23.95;8.40;;;;;;;3.80;79.14;99156.75;5059744;28;19931;-81
2022/03/30 06:24:38;;;;;;;22.15;5.63;;;;;;;3.58;79.04;99155.13;5059034;28;20037;-81
2022/03/30 06:27:08;;;;;;;17.92;7.15;;;;;;;3.62;79.16;99163.53;5065805;28;20033;-82
2022/03/30 06:29:34;;;;;;;17.20;7.45;;;;;;;3.64;79.79;99162.34;5072738;28;20029;-81
2022/03/30 06:32:00;;;;;;;;;;;;;;;3.68;79.59;99166.28;5050873;28;20028;-81
2022/03/30 06:34:25;;;;;;;22.23;6.22;;;;;;;3.72;79.34;99170.22;5071627;28;20282;-80
2022/03/30 06:36:51;;;;;;;19.33;6.85;;;;;;;3.69;78.87;99161.78;5070830;28;20370;-80
2022/03/30 06:39:16;;;;;;;22.10;7.10;;;;;;;3.67;78.80;99172.63;5063097;28;20447;-80
2022/03/30 06:41:42;;;;;;;20.98;7.25;;;;;;;3.76;78.36;99176.78;5065424;28;20033;-80
2022/03/30 06:44:08;;;;;;;17.70;7.15;;;;;;;3.74;78.74;99175.34;5048743;28;20035;-80
2022/03/30 06:46:38;;;;;;;30.85;7.82;;;;;;;3.69;79.19;99175.91;5057884;28;20408;-80
2022/03/30 06:49:04;;;;;;;18.38;5.82;;;;;;;3.65;78.81;99179.97;5056620;28;20082;-80
2022/03/30 06:51:29;;;;;;;20.77;8.50;;;;;;;3.77;78.33;99180.28;5057037;28;20033;-80
2022/03/30 06:53:55;;;;;;;21.10;6.83;;;;;;;3.77;78.67;99178.44;5056989;28;20029;-80
2022/03/30 06:56:20;;;;;;;21.33;7.45;;;;;;;4.19;77.75;99180.22;5056845;28;20036;-80
2022/03/30 06:58:46;;;;;;;20.83;9.03;;;;;;;4.14;77.08;99179.13;5057680;28;20021;-79
2022/03/30 07:01:14;;;;;;;19.40;6.93;;;;;;;4.40;75.84;99176.66;5042356;28;20282;-79
2022/03/30 07:03:40;;;;;;;18.13;6.50;;;;;;;4.37;75.93;99163.72;5039680;28;20033;-79
2022/03/30 07:06:05;;;;;;;17.05;6.25;;;;;;;4.48;75.83;99168.50;5037853;28;20041;-80
2022/03/30 07:11:14;;;;;;;21.63;6.60;;;;;;;4.48;75.85;99176.50;5056016;28;20195;-79
2022/03/30 07:13:40;;;;;;;16.43;6.07;;;;;;;4.66;75.01;99180.53;5038513;28;20092;-80
2022/03/30 07:16:05;;;;;;;18.13;7.18;;;;;;;4.86;73.78;99178.75;5039616;28;20271;-79
2022/03/30 07:18:31;;;;;;;18.38;9.13;;;;;;;4.88;73.83;99182.06;5039496;28;20029;-80
2022/03/30 07:20:56;;;;;;;22.45;7.25;;;;;;;4.99;73.90;99178.00;5040355;28;20029;-80
2022/03/30 07:23:23;;;;;;;26.52;8.45;;;;;;;5.06;73.27;99173.50;5057193;28;20043;-79
2022/03/30 07:25:49;;;;;;;18.55;7.05;;;;;;;5.22;73.29;99167.81;5057150;28;20040;-79
2022/03/30 07:28:16;;;;;;;19.98;6.60;;;;;;;5.33;72.87;99163.75;5039550;28;20120;-79
2022/03/30 07:30:43;;;;;;;18.42;6.60;;;;;;;5.38;72.21;99162.09;5056807;28;20177;-79
2022/03/30 07:33:09;;;;;;;22.58;7.13;;;;;;;5.26;72.54;99165.56;5056490;28;20029;-80
2022/03/30 07:35:35;;;;;;;14.02;5.85;;;;;;;5.63;71.86;99165.03;5059857;28;20112;-80
2022/03/30 07:38:01;;;;;;;;;;;;;;;5.56;71.43;99158.81;5060325;28;20043;-79
2022/03/30 07:40:29;;;;;;;20.38;5.70;;;;;;;5.80;71.86;99155.56;5060397;28;19909;-79
2022/03/30 07:42:55;;;;;;;21.58;7.65;;;;;;;5.77;70.68;99150.63;5057272;28;20084;-80
2022/03/30 07:45:23;;;;;;;;;;;;;;;5.93;70.40;99150.25;5057546;28;20029;-80
2022/03/30 07:47:48;;;;;;;16.42;5.82;;;;;;;6.04;69.76;99148.00;5057839;28;19955;-80
2022/03/30 07:50:14;;;;;;;19.05;6.38;;;;;;;6.25;69.40;99150.47;5056325;28;20043;-80
2022/03/30 07:52:41;;;;;;;25.45;7.78;;;;;;;6.23;69.90;99147.16;5056870;28;20029;-80
2022/03/30 07:55:08;;;;;;;13.85;5.88;;;;;;;6.31;70.00;99141.59;5057479;28;20033;-80
2022/03/30 07:57:36;;;;;;;19.20;6.68;;;;;;;6.16;68.79;99149.00;5057445;28;20036;-79
2022/03/30 08:00:06;;;;;;;18.63;6.93;;;;;;;6.63;68.26;99135.31;5056152;28;20120;-81
2022/03/30 08:02:32;;;;;;;20.85;6.72;;;;;;;6.93;67.06;99138.31;5056179;28;20021;-79
2022/03/30 08:04:57;;;;;;;16.25;5.95;;;;;;;7.02;66.31;99130.84;5037979;28;20160;-80
2022/03/30 08:07:26;;;;;;;14.47;5.43;;;;;;;7.08;65.59;99138.03;5055629;28;20053;-80
2022/03/30 08:09:52;;;;;;;14.15;5.55;;;;;;;7.00;65.86;99132.91;5056752;28;20279;-79
2022/03/30 08:12:17;;;;;;;15.15;5.38;;;;;;;6.91;65.11;99128.84;5038004;28;20072;-79
2022/03/30 08:14:43;;;;;;;18.42;6.53;;;;;;;6.76;66.21;99139.81;5037689;28;20033;-80
2022/03/30 08:17:09;;;;;;;16.48;5.93;;;;;;;6.80;65.96;99140.22;5056069;28;20108;-80
2022/03/30 08:19:35;;;;;;;17.85;6.05;;;;;;;6.94;65.72;99142.63;5056003;28;20100;-80
2022/03/30 08:25:15;;;;;;;16.38;5.80;;;;;;;6.96;65.11;99140.56;5058594;28;20044;-80
2022/03/30 08:27:40;;;;;;;16.85;6.20;;;;;;;7.30;63.72;99142.06;5046644;28;20053;-80
2022/03/30 08:30:07;;;;;;;15.32;5.00;;;;;;;7.18;63.68;99141.06;5039286;28;20357;-81
2022/03/30 08:32:33;;;;;;;13.48;4.88;;;;;;;7.04;64.83;99144.84;5038269;28;20072;-81
2022/03/30 08:35:12;;;;;;;13.63;5.35;;;;;;;7.43;63.75;99153.72;5056904;28;20040;-81
2022/03/30 08:37:38;;;;;;;15.82;5.45;;;;;;;7.47;63.14;99147.72;5039015;28;20174;-80
2022/03/30 08:40:04;;;;;;;13.60;4.95;;;;;;;7.41;63.38;99147.75;5055937;28;20060;-81
2022/03/30 08:42:30;;;;;;;;;;;;;;;7.64;62.61;99142.66;5038730;28;20040;-81
2022/03/30 08:44:55;;;;;;;12.70;5.68;;;;;;;7.85;61.87;99141.47;5038459;28;19909;-80
2022/03/30 08:47:20;;;;;;;13.07;5.25;;;;;;;8.11;61.43;99137.72;5057599;28;20033;-80
2022/03/30 08:49:50;;;;;;;14.38;5.47;;;;;;;8.12;61.12;99134.00;5057182;28;20033;-80
2022/03/30 08:52:16;;;;;;;14.65;5.10;;;;;;;7.97;60.91;99147.75;5056530;28;20029;-79
2022/03/30 08:54:47;;;;;;;13.45;5.25;;;;;;;8.18;61.96;99142.00;5058671;28;20052;-80
2022/03/30 08:57:16;;;;;;;13.35;5.30;;;;;;;8.01;61.14;99133.69;5044004;28;20091;-81
2022/03/30 09:00:00;;;;;;;10.90;4.53;;;;;;;8.26;60.20;99135.53;5062329;28;20502;-80
2022/03/30 09:02:44;;;;;;;14.00;5.17;;;;;;;8.25;60.16;99128.50;5064287;28;20032;-80
2022/03/30 09:05:23;;;;;;;11.07;4.82;;;;;;;8.55;59.51;99134.03;5072615;28;20055;-81
2022/03/30 09:07:51;;;;;;;10.50;4.78;;;;;;;8.40;58.68;99131.72;5066496;28;20033;-79
2022/03/30 09:10:22;;;;;;;12.73;4.30;;;;;;;8.41;59.13;99128.00;5070332;28;20467;-78
2022/03/30 09:12:51;;;;;;;12.23;4.78;;;;;;;8.43;59.10;99123.19;5047975;28;20094;-77
2022/03/30 09:15:20;;;;;;;10.65;4.60;;;;;;;8.65;58.00;99127.09;5057187;28;20029;-73
2022/03/30 09:17:45;;;;;;;14.35;4.30;;;;;;;8.88;56.72;99133.66;5056082;28;20033;-77
2022/03/30 09:20:20;;;;;;;11.32;4.22;;;;;;;8.45;57.13;99121.13;5056032;28;20039;-77
2022/03/30 09:22:48;;;;;;;10.70;4.07;;;;;;;8.56;57.09;99128.44;5056321;28;20036;-78
2022/03/30 09:25:15;;;;;;;11.52;4.72;;;;;;;8.44;56.84;99121.34;5055836;28;20025;-76
2022/03/30 09:27:42;;;;;;;14.10;5.45;;;;;;;8.63;57.32;99126.50;5038243;28;20029;-77
2022/03/30 09:30:10;;;;;;;10.73;4.32;;;;;;;8.80;57.02;99120.50;5055729;28;20029;-78
2022/03/30 09:32:36;;;;;;;14.50;4.55;;;;;;;8.97;56.71;99114.31;5038242;28;20028;-78
2022/03/30 09:35:02;;;;;;;12.85;4.38;;;;;;;8.93;56.99;99129.25;5038460;28;20029;-76
2022/03/30 09:37:28;;;;;;;10.82;3.45;;;;;;;8.77;57.57;99124.50;5055541;28;20097;-76
2022/03/30 09:39:54;;;;;;;12.57;4.68;;;;;;;8.84;56.61;99114.47;5055978;28;20033;-79
2022/03/30 09:42:20;;;;;;;13.73;5.68;;;;;;;8.74;56.88;99110.69;5055214;28;20394;-76
2022/03/30 09:44:54;;;;;;;11.05;4.18;;;;;;;9.03;55.47;99110.72;5055632;28;20033;-76
2022/03/30 09:47:21;;;;;;;9.80;4.07;;;;;;;9.10;54.60;99109.81;5055595;28;20037;-75
2022/03/30 09:49:57;;;;;;;13.85;5.03;;;;;;;8.93;56.03;99098.88;5055632;28;20021;-77
2022/03/30 09:52:28;;;;;;;12.60;5.25;;;;;;;9.08;55.43;99101.97;5056192;28;20063;-78
2022/03/30 09:54:59;;;;;;;14.13;5.30;;;;;;;9.20;55.21;99105.53;5056593;28;20032;-76
2022/03/30 09:57:38;;;;;;;13.25;4.20;;;;;;;9.31;55.14;99099.38;5056952;28;20471;-77
2022/03/30 10:00:18;;;;;;;9.05;4.68;;;;;;;9.38;54.85;99091.22;5057225;28;20152;-78
2022/03/30 10:02:51;;;;;;;9.70;4.13;;;;;;;9.59;54.52;99082.63;5056011;28;20033;-78
2022/03/30 10:05:22;;;;;;;10.43;3.95;;;;;;;9.67;53.39;99100.31;5054890;28;20045;-77
2022/03/30 10:07:50;;;;;;;8.88;3.63;;;;;;;9.63;53.55;99093.75;5037695;28;20036;-77
2022/03/30 10:10:17;;;;;;;11.45;3.65;;;;;;;9.43;53.32;99094.03;5055357;28;20040;-77
2022/03/30 10:12:43;;;;;;;10.40;4.07;;;;;;;9.40;53.71;99094.50;5037025;28;20025;-77
2022/03/30 10:15:11;;;;;;;10.10;3.90;;;;;;;9.40;53.68;99086.44;5055099;28;20039;-77
2022/03/30 10:17:37;;;;;;;12.88;3.80;;;;;;;9.42;53.64;99086.19;5055286;28;20464;-77
2022/03/30 10:20:04;;;;;;;8.95;3.75;;;;;;;9.30;54.37;99078.13;5055217;28;20041;-77
2022/03/30 10:22:35;;;;;;;9.55;3.97;;;;;;;9.32;54.74;99074.13;5054885;28;20090;-76
2022/03/30 10:25:31;;;;;;;10.48;3.70;;;;;;;9.88;53.49;99080.06;5055165;28;20056;-77
2022/03/30 10:28:13;;;;;;;11.27;3.65;;;;;;;9.85;53.78;99069.81;5037293;28;20471;-77
2022/03/30 10:30:43;;;;;;;8.82;3.85;;;;;;;9.70;53.60;99072.91;5054451;28;20535;-79
2022/03/30 10:33:09;;;;;;;12.18;3.60;;;;;;;9.86;52.68;99072.22;5055211;28;20040;-78
2022/03/30 10:35:42;;;;;;;;;;;;;;;9.86;53.09;99074.91;5054930;28;20039;-77
2022/03/30 10:38:08;;;;;;;9.93;3.92;;;;;;;9.51;53.87;99064.13;5056084;28;19909;-78
2022/03/30 10:40:35;;;;;;;10.70;3.85;;;;;;;9.83;53.35;99053.06;5055908;28;20041;-78
2022/03/30 10:43:04;;;;;;;11.82;3.85;;;;;;;10.05;52.00;99044.16;5055569;28;20025;-77
2022/03/30 10:45:30;;;;;;;8.85;3.67;;;;;;;9.99;52.04;99049.69;5055069;28;20033;-76
2022/03/30 10:48:12;;;;;;;9.88;3.70;;;;;;;10.17;51.81;99038.78;5036931;28;20033;-77
2022/03/30 10:50:54;;;;;;;9.73;3.60;;;;;;;10.25;52.71;99034.91;5038690;28;20094;-80
2022/03/30 10:53:31;;;;;;;9.45;3.80;;;;;;;10.22;51.79;99038.91;5056361;28;20061;-78
2022/03/30 10:56:15;;;;;;;7.55;3.03;;;;;;;10.24;51.68;99033.28;5056562;28;20036;-78
2022/03/30 10:58:49;;;;;;;10.00;3.20;;;;;;;10.09;51.89;99029.19;5055289;28;20029;-78
2022/03/30 11:01:22;;;;;;;7.05;2.92;;;;;;;10.10;51.73;99025.44;5037447;28;20045;-76
2022/03/30 11:04:03;;;;;;;7.75;3.38;;;;;;;10.31;51.26;99025.91;5053437;28;20035;-76
2022/03/30 11:06:31;;;;;;;10.73;3.90;;;;;;;10.72;51.08;99022.19;5054000;28;20068;-77
2022/03/30 11:08:58;;;;;;;11.60;3.75;;;;;;;10.63;51.06;99018.22;5053943;28;20020;-76
2022/03/30 11:11:35;;;;;;;8.55;3.10;;;;;;;10.40;50.53;99027.97;5054741;28;20033;-76
2022/03/30 11:14:28;;;;;;;10.23;3.58;;;;;;;10.69;50.41;99017.25;5037241;28;20029;-77
2022/03/30 11:17:03;;;;;;;8.65;3.15;;;;;;;10.59;50.33;99012.47;5036442;28;20380;-77
2022/03/30 11:19:54;;;;;;;10.32;3.85;;;;;;;10.31;51.71;99012.44;5054337;28;20029;-78
2022/03/30 11:22:28;;;;;;;8.65;3.30;;;;;;;10.59;51.21;99011.66;5053469;28;20037;-75
2022/03/30 11:25:26;;;;;;;17.02;3.67;;;;;;;10.91;49.70;99007.47;5053375;28;20033;-75
2022/03/30 11:27:57;;;;;;;8.55;3.88;;;;;;;10.95;50.63;99002.38;5053194;28;20074;-73
2022/03/30 11:30:29;;;;;;;12.10;4.07;;;;;;;11.01;48.89;99004.94;5053324;28;20138;-76
2022/03/30 11:32:56;;;;;;;8.60;3.65;;;;;;;10.76;49.89;99002.56;5035391;28;20093;-76
2022/03/30 11:35:25;;;;;;;11.52;3.35;;;;;;;10.99;49.32;99001.66;5053300;28;20112;-76
2022/03/30 11:38:15;;;;;;;7.95;3.08;;;;;;;11.44;49.06;98998.94;5053062;28;20364;-77
2022/03/30 11:40:45;;;;;;;7.28;3.22;;;;;;;11.34;48.73;99004.16;5053268;28;20053;-77
2022/03/30 11:43:12;;;;;;;8.35;3.42;;;;;;;11.16;49.46;98992.78;5052889;28;20037;-77
2022/03/30 11:45:38;;;;;;;7.72;3.47;;;;;;;11.52;49.10;98992.31;5053504;28;20033;-77
2022/03/30 11:48:10;;;;;;;7.10;3.08;;;;;;;11.41;48.42;98991.34;5036280;28;20367;-77
2022/03/30 11:50:47;;;;;;;11.00;3.88;;;;;;;11.22;50.28;98989.13;5053298;28;20025;-76
2022/03/30 11:53:18;;;;;;;8.80;3.75;;;;;;;11.18;50.35;98985.25;5053585;28;20056;-78